sensor_id;sensor_type;location;lat;lon;timestamp;pressure;altitude;pressure_sealevel;temperature;humidity
12781;BME280;6454;43.304;24.344;2023-02-19T00:01:27;100405.91;;;3.74;75.97
12781;BME280;6454;43.304;24.344;2023-02-19T00:03:55;100407.97;;;3.72;76.29
12781;BME280;6454;43.304;24.344;2023-02-19T00:06:24;100415.44;;;3.70;76.56
12781;BME280;6454;43.304;24.344;2023-02-19T00:08:51;100404.72;;;3.70;76.45
12781;BME280;6454;43.304;24.344;2023-02-19T00:11:21;100396.09;;;3.68;76.72
12781;BME280;6454;43.304;24.344;2023-02-19T00:13:52;100405.53;;;3.70;77.10
12781;BME280;6454;43.304;24.344;2023-02-19T00:16:21;100401.00;;;3.71;76.88
12781;BME280;6454;43.304;24.344;2023-02-19T00:18:49;100405.53;;;3.70;77.21
12781;BME280;6454;43.304;24.344;2023-02-19T00:21:16;100395.50;;;3.77;77.03
12781;BME280;6454;43.304;24.344;2023-02-19T00:23:47;100394.44;;;3.78;77.01
12781;BME280;6454;43.304;24.344;2023-02-19T00:26:14;100395.97;;;3.74;77.02
12781;BME280;6454;43.304;24.344;2023-02-19T00:28:42;100397.94;;;3.79;76.88
12781;BME280;6454;43.304;24.344;2023-02-19T00:31:15;100404.47;;;3.83;76.71
12781;BME280;6454;43.304;24.344;2023-02-19T00:33:42;100396.44;;;3.83;77.03
12781;BME280;6454;43.304;24.344;2023-02-19T00:36:09;100400.03;;;3.77;77.18
12781;BME280;6454;43.304;24.344;2023-02-19T00:38:36;100407.16;;;3.83;76.57
12781;BME280;6454;43.304;24.344;2023-02-19T00:41:04;100413.91;;;3.85;76.56
12781;BME280;6454;43.304;24.344;2023-02-19T00:43:45;100423.84;;;3.73;77.05
12781;BME280;6454;43.304;24.344;2023-02-19T00:46:12;100407.25;;;3.76;77.88
12781;BME280;6454;43.304;24.344;2023-02-19T00:48:39;100410.66;;;3.83;77.25
12781;BME280;6454;43.304;24.344;2023-02-19T00:51:06;100423.16;;;3.78;76.86
12781;BME280;6454;43.304;24.344;2023-02-19T00:53:33;100426.03;;;3.76;77.34
12781;BME280;6454;43.304;24.344;2023-02-19T00:55:59;100413.56;;;3.82;77.20
12781;BME280;6454;43.304;24.344;2023-02-19T00:58:26;100415.53;;;3.86;76.39
12781;BME280;6454;43.304;24.344;2023-02-19T01:00:54;100406.69;;;3.74;76.16
12781;BME280;6454;43.304;24.344;2023-02-19T01:03:21;100398.44;;;3.76;76.78
12781;BME280;6454;43.304;24.344;2023-02-19T01:05:48;100389.56;;;3.75;77.12
12781;BME280;6454;43.304;24.344;2023-02-19T01:08:15;100386.28;;;3.62;77.00
12781;BME280;6454;43.304;24.344;2023-02-19T01:10:42;100392.81;;;3.54;77.19
12781;BME280;6454;43.304;24.344;2023-02-19T01:13:09;100392.25;;;3.52;77.54
12781;BME280;6454;43.304;24.344;2023-02-19T01:15:36;100379.56;;;3.48;77.98
12781;BME280;6454;43.304;24.344;2023-02-19T01:18:04;100384.69;;;3.38;78.15
12781;BME280;6454;43.304;24.344;2023-02-19T01:20:33;100389.59;;;3.41;78.56
12781;BME280;6454;43.304;24.344;2023-02-19T01:22:59;100391.44;;;3.40;79.00
12781;BME280;6454;43.304;24.344;2023-02-19T01:25:26;100394.00;;;3.35;78.91
12781;BME280;6454;43.304;24.344;2023-02-19T01:27:53;100399.34;;;3.47;78.75
12781;BME280;6454;43.304;24.344;2023-02-19T01:30:20;100399.72;;;3.50;78.82
12781;BME280;6454;43.304;24.344;2023-02-19T01:32:46;100401.81;;;3.48;78.87
12781;BME280;6454;43.304;24.344;2023-02-19T01:35:15;100393.06;;;3.53;78.75
12781;BME280;6454;43.304;24.344;2023-02-19T01:37:42;100405.78;;;3.57;78.54
12781;BME280;6454;43.304;24.344;2023-02-19T01:40:09;100341.22;;;3.24;78.26
12781;BME280;6454;43.304;24.344;2023-02-19T01:42:36;100405.44;;;3.54;78.26
12781;BME280;6454;43.304;24.344;2023-02-19T01:45:24;100409.28;;;3.58;78.20
12781;BME280;6454;43.304;24.344;2023-02-19T01:47:58;100413.38;;;3.60;78.50
12781;BME280;6454;43.304;24.344;2023-02-19T01:50:33;100415.69;;;3.57;78.86
12781;BME280;6454;43.304;24.344;2023-02-19T01:53:05;100426.19;;;3.58;78.40
12781;BME280;6454;43.304;24.344;2023-02-19T01:55:33;100412.22;;;3.56;78.61
12781;BME280;6454;43.304;24.344;2023-02-19T01:58:01;100436.34;;;3.68;78.10
12781;BME280;6454;43.304;24.344;2023-02-19T02:00:29;100431.09;;;3.61;78.30
12781;BME280;6454;43.304;24.344;2023-02-19T02:02:57;100439.84;;;3.68;77.92
12781;BME280;6454;43.304;24.344;2023-02-19T02:05:37;100435.66;;;3.61;78.54
12781;BME280;6454;43.304;24.344;2023-02-19T02:08:05;100429.69;;;3.59;78.70
12781;BME280;6454;43.304;24.344;2023-02-19T02:10:50;100435.53;;;3.56;78.85
12781;BME280;6454;43.304;24.344;2023-02-19T02:13:17;100432.03;;;3.55;79.15
12781;BME280;6454;43.304;24.344;2023-02-19T02:15:50;100442.06;;;3.48;79.13
12781;BME280;6454;43.304;24.344;2023-02-19T02:18:28;100448.00;;;3.50;79.31
12781;BME280;6454;43.304;24.344;2023-02-19T02:21:25;100455.34;;;3.55;79.54
12781;BME280;6454;43.304;24.344;2023-02-19T02:24:09;100446.34;;;3.49;79.36
12781;BME280;6454;43.304;24.344;2023-02-19T02:27:04;100451.25;;;3.52;79.72
12781;BME280;6454;43.304;24.344;2023-02-19T02:30:02;100451.50;;;3.62;79.38
12781;BME280;6454;43.304;24.344;2023-02-19T02:32:37;100447.53;;;3.53;79.61
12781;BME280;6454;43.304;24.344;2023-02-19T02:35:08;100459.41;;;3.57;79.47
12781;BME280;6454;43.304;24.344;2023-02-19T02:37:38;100466.19;;;3.60;79.56
12781;BME280;6454;43.304;24.344;2023-02-19T02:40:09;100469.44;;;3.62;79.64
12781;BME280;6454;43.304;24.344;2023-02-19T02:42:38;100471.91;;;3.63;79.91
12781;BME280;6454;43.304;24.344;2023-02-19T02:45:22;100472.00;;;3.57;79.94
12781;BME280;6454;43.304;24.344;2023-02-19T02:48:16;100477.75;;;3.60;80.46
12781;BME280;6454;43.304;24.344;2023-02-19T02:50:47;100465.00;;;3.44;80.35
12781;BME280;6454;43.304;24.344;2023-02-19T02:53:18;100469.13;;;3.58;80.57
12781;BME280;6454;43.304;24.344;2023-02-19T02:56:04;100466.88;;;3.55;80.35
12781;BME280;6454;43.304;24.344;2023-02-19T02:58:33;100469.00;;;3.53;80.34
12781;BME280;6454;43.304;24.344;2023-02-19T03:01:04;100458.59;;;3.57;80.32
12781;BME280;6454;43.304;24.344;2023-02-19T03:03:53;100444.72;;;3.60;80.22
12781;BME280;6454;43.304;24.344;2023-02-19T03:06:25;100445.31;;;3.50;80.04
12781;BME280;6454;43.304;24.344;2023-02-19T03:08:56;100455.94;;;3.68;80.20
12781;BME280;6454;43.304;24.344;2023-02-19T03:11:25;100458.94;;;3.72;80.56
12781;BME280;6454;43.304;24.344;2023-02-19T03:14:12;100460.94;;;3.76;80.28
12781;BME280;6454;43.304;24.344;2023-02-19T03:17:05;100457.41;;;3.99;82.15
12781;BME280;6454;43.304;24.344;2023-02-19T03:19:55;100464.34;;;4.35;82.12
12781;BME280;6454;43.304;24.344;2023-02-19T03:22:25;100455.59;;;4.68;82.43
12781;BME280;6454;43.304;24.344;2023-02-19T03:24:59;100451.19;;;5.23;81.51
12781;BME280;6454;43.304;24.344;2023-02-19T03:27:46;100458.25;;;5.79;79.54
12781;BME280;6454;43.304;24.344;2023-02-19T03:30:19;100455.31;;;6.19;77.87
12781;BME280;6454;43.304;24.344;2023-02-19T03:32:52;100449.72;;;6.69;75.70
12781;BME280;6454;43.304;24.344;2023-02-19T03:35:22;100458.56;;;6.91;74.23
12781;BME280;6454;43.304;24.344;2023-02-19T03:37:56;100453.22;;;6.96;73.64
12781;BME280;6454;43.304;24.344;2023-02-19T03:40:28;100460.59;;;7.05;73.46
12781;BME280;6454;43.304;24.344;2023-02-19T03:43:02;100463.22;;;7.27;72.42
12781;BME280;6454;43.304;24.344;2023-02-19T03:45:39;100460.84;;;7.36;71.61
12781;BME280;6454;43.304;24.344;2023-02-19T03:48:22;100462.25;;;7.43;71.13
12781;BME280;6454;43.304;24.344;2023-02-19T03:51:02;100455.31;;;7.47;71.27
12781;BME280;6454;43.304;24.344;2023-02-19T03:53:33;100458.13;;;7.62;70.92
12781;BME280;6454;43.304;24.344;2023-02-19T03:56:06;100470.59;;;7.73;70.08
12781;BME280;6454;43.304;24.344;2023-02-19T03:58:39;100466.28;;;7.72;70.07
12781;BME280;6454;43.304;24.344;2023-02-19T04:01:12;100471.09;;;7.70;70.32
12781;BME280;6454;43.304;24.344;2023-02-19T04:03:47;100453.00;;;7.66;70.23
12781;BME280;6454;43.304;24.344;2023-02-19T04:06:19;100455.34;;;7.94;69.42
12781;BME280;6454;43.304;24.344;2023-02-19T04:08:51;100452.84;;;8.29;67.94
12781;BME280;6454;43.304;24.344;2023-02-19T04:11:19;100442.16;;;8.60;67.25
12781;BME280;6454;43.304;24.344;2023-02-19T04:13:52;100445.19;;;8.88;65.94
12781;BME280;6454;43.304;24.344;2023-02-19T04:16:25;100443.06;;;9.21;64.74
12781;BME280;6454;43.304;24.344;2023-02-19T04:18:57;100441.16;;;9.46;64.04
12781;BME280;6454;43.304;24.344;2023-02-19T04:21:27;100440.31;;;9.66;63.42
12781;BME280;6454;43.304;24.344;2023-02-19T04:23:57;100448.44;;;9.81;62.83
12781;BME280;6454;43.304;24.344;2023-02-19T04:26:25;100444.34;;;9.94;61.84
12781;BME280;6454;43.304;24.344;2023-02-19T04:28:53;100450.00;;;10.02;61.74
12781;BME280;6454;43.304;24.344;2023-02-19T04:31:20;100455.41;;;10.07;61.46
12781;BME280;6454;43.304;24.344;2023-02-19T04:33:47;100451.09;;;10.01;61.00
12781;BME280;6454;43.304;24.344;2023-02-19T04:36:15;100452.19;;;9.90;60.89
12781;BME280;6454;43.304;24.344;2023-02-19T04:38:42;100453.84;;;9.81;61.00
12781;BME280;6454;43.304;24.344;2023-02-19T04:41:09;100448.97;;;9.78;61.31
12781;BME280;6454;43.304;24.344;2023-02-19T04:43:36;100451.97;;;9.71;61.41
12781;BME280;6454;43.304;24.344;2023-02-19T04:46:03;100460.09;;;9.66;61.46
12781;BME280;6454;43.304;24.344;2023-02-19T04:48:29;100454.94;;;9.65;61.33
12781;BME280;6454;43.304;24.344;2023-02-19T04:50:56;100457.41;;;9.56;61.66
12781;BME280;6454;43.304;24.344;2023-02-19T04:53:24;100452.81;;;9.62;62.00
12781;BME280;6454;43.304;24.344;2023-02-19T04:55:51;100461.44;;;9.84;61.91
12781;BME280;6454;43.304;24.344;2023-02-19T04:58:19;100464.63;;;10.16;61.07
12781;BME280;6454;43.304;24.344;2023-02-19T05:00:50;100467.31;;;10.31;60.63
12781;BME280;6454;43.304;24.344;2023-02-19T05:03:17;100471.59;;;10.43;60.16
12781;BME280;6454;43.304;24.344;2023-02-19T05:05:44;100472.63;;;10.57;60.13
12781;BME280;6454;43.304;24.344;2023-02-19T05:08:11;100472.81;;;10.70;60.10
12781;BME280;6454;43.304;24.344;2023-02-19T05:10:39;100477.63;;;10.83;59.66
12781;BME280;6454;43.304;24.344;2023-02-19T05:13:05;100468.63;;;10.93;59.19
12781;BME280;6454;43.304;24.344;2023-02-19T05:15:32;100470.19;;;11.04;58.93
12781;BME280;6454;43.304;24.344;2023-02-19T05:17:59;100475.03;;;11.07;58.91
12781;BME280;6454;43.304;24.344;2023-02-19T05:20:26;100469.13;;;11.00;59.04
12781;BME280;6454;43.304;24.344;2023-02-19T05:22:53;100476.06;;;11.16;58.94
12781;BME280;6454;43.304;24.344;2023-02-19T05:25:19;100476.31;;;11.20;58.86
12781;BME280;6454;43.304;24.344;2023-02-19T05:27:48;100488.28;;;11.19;59.26
12781;BME280;6454;43.304;24.344;2023-02-19T05:30:14;100483.63;;;11.24;59.27
12781;BME280;6454;43.304;24.344;2023-02-19T05:32:41;100479.47;;;11.32;59.15
12781;BME280;6454;43.304;24.344;2023-02-19T05:35:08;100487.91;;;11.30;59.26
12781;BME280;6454;43.304;24.344;2023-02-19T05:37:35;100499.03;;;11.34;59.39
12781;BME280;6454;43.304;24.344;2023-02-19T05:40:02;100493.56;;;11.39;59.74
12781;BME280;6454;43.304;24.344;2023-02-19T05:42:28;100504.41;;;11.44;59.37
12781;BME280;6454;43.304;24.344;2023-02-19T05:44:57;100508.44;;;11.46;59.75
12781;BME280;6454;43.304;24.344;2023-02-19T05:47:23;100514.94;;;11.50;59.50
12781;BME280;6454;43.304;24.344;2023-02-19T05:49:50;100521.97;;;11.56;59.28
12781;BME280;6454;43.304;24.344;2023-02-19T05:52:17;100530.34;;;11.60;59.44
12781;BME280;6454;43.304;24.344;2023-02-19T05:54:43;100530.28;;;11.65;58.94
12781;BME280;6454;43.304;24.344;2023-02-19T05:57:10;100537.59;;;11.75;58.99
12781;BME280;6454;43.304;24.344;2023-02-19T05:59:37;100542.97;;;11.80;59.01
12781;BME280;6454;43.304;24.344;2023-02-19T06:02:05;100541.88;;;11.81;58.95
12781;BME280;6454;43.304;24.344;2023-02-19T06:04:32;100544.78;;;11.89;58.75
12781;BME280;6454;43.304;24.344;2023-02-19T06:06:58;100539.84;;;11.96;58.81
12781;BME280;6454;43.304;24.344;2023-02-19T06:09:25;100540.09;;;12.00;58.52
12781;BME280;6454;43.304;24.344;2023-02-19T06:11:52;100539.72;;;12.11;58.52
12781;BME280;6454;43.304;24.344;2023-02-19T06:14:19;100542.91;;;12.18;58.50
12781;BME280;6454;43.304;24.344;2023-02-19T06:16:45;100529.56;;;12.17;58.78
12781;BME280;6454;43.304;24.344;2023-02-19T06:19:14;100530.84;;;12.24;58.36
12781;BME280;6454;43.304;24.344;2023-02-19T06:21:40;100528.28;;;12.38;57.99
12781;BME280;6454;43.304;24.344;2023-02-19T06:24:08;100537.94;;;12.49;57.35
12781;BME280;6454;43.304;24.344;2023-02-19T06:26:35;100550.69;;;12.54;57.38
12781;BME280;6454;43.304;24.344;2023-02-19T06:29:02;100541.22;;;12.70;56.99
12781;BME280;6454;43.304;24.344;2023-02-19T06:31:29;100557.50;;;12.75;57.01
12781;BME280;6454;43.304;24.344;2023-02-19T06:33:56;100542.44;;;12.82;56.88
12781;BME280;6454;43.304;24.344;2023-02-19T06:36:24;100549.38;;;12.93;56.50
12781;BME280;6454;43.304;24.344;2023-02-19T06:38:51;100558.81;;;13.01;56.38
12781;BME280;6454;43.304;24.344;2023-02-19T06:41:17;100558.19;;;13.09;56.23
12781;BME280;6454;43.304;24.344;2023-02-19T06:43:44;100553.41;;;13.20;55.94
12781;BME280;6454;43.304;24.344;2023-02-19T06:46:12;100547.81;;;13.30;55.76
12781;BME280;6454;43.304;24.344;2023-02-19T06:48:40;100559.75;;;13.34;55.78
12781;BME280;6454;43.304;24.344;2023-02-19T06:51:10;100555.91;;;13.35;55.83
12781;BME280;6454;43.304;24.344;2023-02-19T06:53:39;100557.34;;;13.51;55.55
12781;BME280;6454;43.304;24.344;2023-02-19T06:56:18;100556.72;;;13.54;55.61
12781;BME280;6454;43.304;24.344;2023-02-19T06:58:46;100557.75;;;13.58;55.28
12781;BME280;6454;43.304;24.344;2023-02-19T07:01:13;100556.47;;;13.69;55.17
12781;BME280;6454;43.304;24.344;2023-02-19T07:03:40;100566.78;;;13.72;55.48
12781;BME280;6454;43.304;24.344;2023-02-19T07:06:07;100561.84;;;13.74;55.65
12781;BME280;6454;43.304;24.344;2023-02-19T07:08:34;100552.19;;;13.82;55.36
12781;BME280;6454;43.304;24.344;2023-02-19T07:11:02;100563.75;;;13.92;54.83
12781;BME280;6454;43.304;24.344;2023-02-19T07:13:29;100562.66;;;13.93;55.20
12781;BME280;6454;43.304;24.344;2023-02-19T07:15:58;100557.09;;;13.98;55.35
12781;BME280;6454;43.304;24.344;2023-02-19T07:18:25;100552.34;;;14.04;55.08
12781;BME280;6454;43.304;24.344;2023-02-19T07:20:52;100564.31;;;14.08;55.00
12781;BME280;6454;43.304;24.344;2023-02-19T07:23:19;100556.91;;;14.08;55.33
12781;BME280;6454;43.304;24.344;2023-02-19T07:25:46;100563.31;;;14.17;54.47
12781;BME280;6454;43.304;24.344;2023-02-19T07:28:14;100567.03;;;14.21;55.23
12781;BME280;6454;43.304;24.344;2023-02-19T07:30:40;100567.72;;;14.13;55.42
12781;BME280;6454;43.304;24.344;2023-02-19T07:33:09;100566.03;;;14.17;55.73
12781;BME280;6454;43.304;24.344;2023-02-19T07:35:36;100561.31;;;14.23;54.90
12781;BME280;6454;43.304;24.344;2023-02-19T07:38:03;100555.53;;;14.25;55.43
12781;BME280;6454;43.304;24.344;2023-02-19T07:40:29;100560.41;;;14.28;55.15
12781;BME280;6454;43.304;24.344;2023-02-19T07:42:58;100563.56;;;14.35;54.90
12781;BME280;6454;43.304;24.344;2023-02-19T07:45:26;100565.69;;;14.38;55.05
12781;BME280;6454;43.304;24.344;2023-02-19T07:47:53;100562.38;;;14.41;55.89
12781;BME280;6454;43.304;24.344;2023-02-19T07:50:19;100563.28;;;14.50;55.49
12781;BME280;6454;43.304;24.344;2023-02-19T07:52:46;100578.97;;;14.58;56.08
12781;BME280;6454;43.304;24.344;2023-02-19T07:55:14;100566.81;;;14.64;55.37
12781;BME280;6454;43.304;24.344;2023-02-19T07:57:40;100570.38;;;14.64;55.48
12781;BME280;6454;43.304;24.344;2023-02-19T08:00:08;100583.50;;;14.76;55.26
12781;BME280;6454;43.304;24.344;2023-02-19T08:02:36;100558.66;;;14.77;55.64
12781;BME280;6454;43.304;24.344;2023-02-19T08:05:21;100562.38;;;14.81;55.46
12781;BME280;6454;43.304;24.344;2023-02-19T08:07:47;100555.88;;;14.91;55.23
12781;BME280;6454;43.304;24.344;2023-02-19T08:10:14;100549.72;;;14.99;54.82
12781;BME280;6454;43.304;24.344;2023-02-19T08:12:59;100539.06;;;15.11;55.11
12781;BME280;6454;43.304;24.344;2023-02-19T08:15:44;100545.63;;;15.24;55.11
12781;BME280;6454;43.304;24.344;2023-02-19T08:18:13;100535.75;;;15.36;54.48
12781;BME280;6454;43.304;24.344;2023-02-19T08:20:40;100540.63;;;15.39;54.52
12781;BME280;6454;43.304;24.344;2023-02-19T08:23:08;100536.53;;;15.51;54.25
12781;BME280;6454;43.304;24.344;2023-02-19T08:25:35;100534.00;;;15.54;53.40
12781;BME280;6454;43.304;24.344;2023-02-19T08:28:02;100532.09;;;15.55;53.42
12781;BME280;6454;43.304;24.344;2023-02-19T08:30:30;100525.56;;;15.64;52.88
12781;BME280;6454;43.304;24.344;2023-02-19T08:32:58;100535.94;;;15.76;52.95
12781;BME280;6454;43.304;24.344;2023-02-19T08:35:27;100501.28;;;15.63;52.17
12781;BME280;6454;43.304;24.344;2023-02-19T08:37:54;100531.59;;;15.97;51.71
12781;BME280;6454;43.304;24.344;2023-02-19T08:40:22;100537.28;;;16.09;51.45
12781;BME280;6454;43.304;24.344;2023-02-19T08:42:49;100548.22;;;16.09;50.53
12781;BME280;6454;43.304;24.344;2023-02-19T08:45:16;100525.72;;;16.12;50.03
12781;BME280;6454;43.304;24.344;2023-02-19T08:47:43;100534.78;;;16.21;49.43
12781;BME280;6454;43.304;24.344;2023-02-19T08:50:11;100529.63;;;16.20;49.81
12781;BME280;6454;43.304;24.344;2023-02-19T08:52:39;100546.34;;;16.18;49.15
12781;BME280;6454;43.304;24.344;2023-02-19T08:55:06;100544.47;;;16.27;48.99
12781;BME280;6454;43.304;24.344;2023-02-19T08:57:34;100543.84;;;16.30;49.18
12781;BME280;6454;43.304;24.344;2023-02-19T09:00:02;100546.31;;;16.40;49.30
12781;BME280;6454;43.304;24.344;2023-02-19T09:02:29;100543.94;;;16.47;49.20
12781;BME280;6454;43.304;24.344;2023-02-19T09:04:56;100531.56;;;16.58;48.76
12781;BME280;6454;43.304;24.344;2023-02-19T09:07:23;100539.16;;;16.61;48.74
12781;BME280;6454;43.304;24.344;2023-02-19T09:09:51;100529.19;;;16.65;48.01
12781;BME280;6454;43.304;24.344;2023-02-19T09:12:19;100543.41;;;16.67;47.47
12781;BME280;6454;43.304;24.344;2023-02-19T09:14:46;100519.03;;;16.66;47.72
12781;BME280;6454;43.304;24.344;2023-02-19T09:17:13;100544.50;;;16.66;47.21
12781;BME280;6454;43.304;24.344;2023-02-19T09:19:39;100542.72;;;16.70;47.45
12781;BME280;6454;43.304;24.344;2023-02-19T09:22:06;100518.88;;;16.62;48.28
12781;BME280;6454;43.304;24.344;2023-02-19T09:24:33;100528.75;;;16.72;49.13
12781;BME280;6454;43.304;24.344;2023-02-19T09:27:01;100524.22;;;16.76;48.07
12781;BME280;6454;43.304;24.344;2023-02-19T09:29:28;100525.03;;;16.77;48.44
12781;BME280;6454;43.304;24.344;2023-02-19T09:31:55;100526.66;;;16.78;48.15
12781;BME280;6454;43.304;24.344;2023-02-19T09:34:23;100520.72;;;16.84;48.33
12781;BME280;6454;43.304;24.344;2023-02-19T09:36:51;100525.72;;;16.91;47.05
12781;BME280;6454;43.304;24.344;2023-02-19T09:39:18;100515.91;;;16.90;47.08
12781;BME280;6454;43.304;24.344;2023-02-19T09:41:47;100527.34;;;16.92;47.16
12781;BME280;6454;43.304;24.344;2023-02-19T09:44:20;100529.78;;;17.02;46.96
12781;BME280;6454;43.304;24.344;2023-02-19T09:46:50;100532.53;;;17.19;46.97
12781;BME280;6454;43.304;24.344;2023-02-19T09:49:20;100524.97;;;17.24;47.58
12781;BME280;6454;43.304;24.344;2023-02-19T09:51:51;100536.44;;;17.35;47.58
12781;BME280;6454;43.304;24.344;2023-02-19T09:54:23;100525.47;;;17.35;46.57
12781;BME280;6454;43.304;24.344;2023-02-19T09:56:52;100539.00;;;17.40;46.81
12781;BME280;6454;43.304;24.344;2023-02-19T09:59:23;100535.94;;;17.33;46.82
12781;BME280;6454;43.304;24.344;2023-02-19T10:01:55;100519.31;;;17.38;47.32
12781;BME280;6454;43.304;24.344;2023-02-19T10:04:23;100521.25;;;17.46;46.42
12781;BME280;6454;43.304;24.344;2023-02-19T10:06:50;100526.09;;;17.49;47.01
12781;BME280;6454;43.304;24.344;2023-02-19T10:09:21;100527.06;;;17.36;46.35
12781;BME280;6454;43.304;24.344;2023-02-19T10:11:48;100518.50;;;17.46;46.32
12781;BME280;6454;43.304;24.344;2023-02-19T10:14:18;100523.84;;;17.51;45.20
12781;BME280;6454;43.304;24.344;2023-02-19T10:16:49;100499.50;;;17.32;45.89
12781;BME280;6454;43.304;24.344;2023-02-19T10:19:16;100525.63;;;17.47;45.74
12781;BME280;6454;43.304;24.344;2023-02-19T10:21:43;100526.09;;;17.49;45.08
12781;BME280;6454;43.304;24.344;2023-02-19T10:24:17;100489.78;;;17.44;45.81
12781;BME280;6454;43.304;24.344;2023-02-19T10:26:45;100504.00;;;17.63;45.33
12781;BME280;6454;43.304;24.344;2023-02-19T10:29:12;100508.19;;;17.60;44.90
12781;BME280;6454;43.304;24.344;2023-02-19T10:31:39;100490.16;;;17.59;45.25
12781;BME280;6454;43.304;24.344;2023-02-19T10:34:16;100497.41;;;17.64;45.41
12781;BME280;6454;43.304;24.344;2023-02-19T10:36:46;100486.75;;;17.62;45.74
12781;BME280;6454;43.304;24.344;2023-02-19T10:39:31;100483.03;;;17.67;46.30
12781;BME280;6454;43.304;24.344;2023-02-19T10:42:01;100447.03;;;17.51;46.02
12781;BME280;6454;43.304;24.344;2023-02-19T10:44:30;100486.59;;;17.67;44.90
12781;BME280;6454;43.304;24.344;2023-02-19T10:47:00;100478.19;;;17.64;45.84
12781;BME280;6454;43.304;24.344;2023-02-19T10:49:32;100480.59;;;17.65;46.18
12781;BME280;6454;43.304;24.344;2023-02-19T10:52:11;100477.34;;;17.80;46.26
12781;BME280;6454;43.304;24.344;2023-02-19T10:54:42;100464.44;;;17.89;45.34
12781;BME280;6454;43.304;24.344;2023-02-19T10:57:27;100467.00;;;17.86;44.63
12781;BME280;6454;43.304;24.344;2023-02-19T10:59:58;100471.50;;;17.99;44.58
12781;BME280;6454;43.304;24.344;2023-02-19T11:02:27;100462.84;;;18.18;44.82
12781;BME280;6454;43.304;24.344;2023-02-19T11:05:17;100443.44;;;18.23;44.05
12781;BME280;6454;43.304;24.344;2023-02-19T11:07:46;100442.63;;;18.31;44.26
12781;BME280;6454;43.304;24.344;2023-02-19T11:10:21;100448.38;;;18.38;43.74
12781;BME280;6454;43.304;24.344;2023-02-19T11:12:50;100432.91;;;18.33;43.85
12781;BME280;6454;43.304;24.344;2023-02-19T11:15:21;100438.03;;;18.43;43.79
12781;BME280;6454;43.304;24.344;2023-02-19T11:17:57;100430.25;;;18.45;43.16
12781;BME280;6454;43.304;24.344;2023-02-19T11:20:27;100423.78;;;18.50;44.40
12781;BME280;6454;43.304;24.344;2023-02-19T11:22:58;100426.84;;;18.57;43.66
12781;BME280;6454;43.304;24.344;2023-02-19T11:25:27;100421.16;;;18.62;43.03
12781;BME280;6454;43.304;24.344;2023-02-19T11:27:57;100412.41;;;18.60;43.16
12781;BME280;6454;43.304;24.344;2023-02-19T11:30:38;100404.97;;;18.60;43.27
12781;BME280;6454;43.304;24.344;2023-02-19T11:33:32;100410.00;;;18.58;42.80
12781;BME280;6454;43.304;24.344;2023-02-19T11:36:23;100407.59;;;18.57;43.46
12781;BME280;6454;43.304;24.344;2023-02-19T11:38:51;100398.22;;;18.58;43.47
12781;BME280;6454;43.304;24.344;2023-02-19T11:41:26;100395.16;;;18.59;42.75
12781;BME280;6454;43.304;24.344;2023-02-19T11:44:06;100402.22;;;18.60;42.89
12781;BME280;6454;43.304;24.344;2023-02-19T11:46:41;100391.25;;;18.60;42.74
12781;BME280;6454;43.304;24.344;2023-02-19T11:49:19;100391.03;;;18.65;42.44
12781;BME280;6454;43.304;24.344;2023-02-19T11:54:46;100369.06;;;18.65;42.11
12781;BME280;6454;43.304;24.344;2023-02-19T11:57:27;100380.13;;;18.78;40.94
12781;BME280;6454;43.304;24.344;2023-02-19T12:00:02;100373.34;;;18.75;41.97
12781;BME280;6454;43.304;24.344;2023-02-19T12:02:51;100374.56;;;18.86;41.26
12781;BME280;6454;43.304;24.344;2023-02-19T12:05:33;100367.28;;;19.02;42.20
12781;BME280;6454;43.304;24.344;2023-02-19T12:08:34;100369.38;;;19.05;41.08
12781;BME280;6454;43.304;24.344;2023-02-19T12:11:17;100359.66;;;19.08;40.79
12781;BME280;6454;43.304;24.344;2023-02-19T12:14:01;100355.84;;;19.00;41.35
12781;BME280;6454;43.304;24.344;2023-02-19T12:16:38;100353.09;;;19.00;40.44
12781;BME280;6454;43.304;24.344;2023-02-19T12:19:24;100355.13;;;18.91;40.69
12781;BME280;6454;43.304;24.344;2023-02-19T12:22:23;100342.50;;;18.90;40.76
12781;BME280;6454;43.304;24.344;2023-02-19T12:28:28;100331.41;;;18.87;41.26
12781;BME280;6454;43.304;24.344;2023-02-19T12:31:18;100334.94;;;18.87;40.95
12781;BME280;6454;43.304;24.344;2023-02-19T12:34:07;100320.19;;;18.92;41.06
12781;BME280;6454;43.304;24.344;2023-02-19T12:36:42;100315.47;;;18.92;40.63
12781;BME280;6454;43.304;24.344;2023-02-19T12:39:20;100313.00;;;18.99;41.41
12781;BME280;6454;43.304;24.344;2023-02-19T12:41:57;100302.22;;;18.94;40.88
12781;BME280;6454;43.304;24.344;2023-02-19T12:44:32;100301.53;;;18.97;40.16
12781;BME280;6454;43.304;24.344;2023-02-19T12:47:03;100294.44;;;18.96;40.16
12781;BME280;6454;43.304;24.344;2023-02-19T12:49:34;100293.63;;;18.96;41.12
12781;BME280;6454;43.304;24.344;2023-02-19T12:52:05;100287.53;;;18.90;40.20
12781;BME280;6454;43.304;24.344;2023-02-19T12:54:37;100279.19;;;18.87;40.30
12781;BME280;6454;43.304;24.344;2023-02-19T12:57:11;100283.06;;;18.86;40.96
12781;BME280;6454;43.304;24.344;2023-02-19T12:59:42;100281.56;;;18.88;40.46
12781;BME280;6454;43.304;24.344;2023-02-19T13:02:15;100276.53;;;18.90;40.65
12781;BME280;6454;43.304;24.344;2023-02-19T13:04:48;100269.69;;;18.96;40.64
12781;BME280;6454;43.304;24.344;2023-02-19T13:07:22;100263.31;;;19.04;40.40
12781;BME280;6454;43.304;24.344;2023-02-19T13:09:54;100260.06;;;19.02;40.72
12781;BME280;6454;43.304;24.344;2023-02-19T13:12:27;100258.47;;;19.01;40.78
12781;BME280;6454;43.304;24.344;2023-02-19T13:14:56;100257.59;;;19.09;41.21
12781;BME280;6454;43.304;24.344;2023-02-19T13:17:28;100261.13;;;19.10;39.91
12781;BME280;6454;43.304;24.344;2023-02-19T13:20:00;100238.56;;;19.04;40.35